createdAt,value
2022-11-06T00:00:34.062Z,14.17
2022-11-06T00:03:02.852Z,14.13
2022-11-06T00:05:49.301Z,12.60
2022-11-06T00:08:26.636Z,14.70
2022-11-06T00:10:54.690Z,15.73
2022-11-06T00:13:22.842Z,16.00
2022-11-06T00:15:52.579Z,15.37
2022-11-06T00:18:20.865Z,17.93
2022-11-06T00:20:48.911Z,16.43
2022-11-06T00:23:16.934Z,16.17
2022-11-06T00:25:44.922Z,15.73
2022-11-06T00:28:13.302Z,17.20
2022-11-06T00:30:41.478Z,16.80
2022-11-06T00:33:10.988Z,15.80
2022-11-06T00:35:40.084Z,15.80
2022-11-06T00:38:08.153Z,15.10
2022-11-06T00:40:36.137Z,15.00
2022-11-06T00:43:04.136Z,17.37
2022-11-06T00:45:32.118Z,17.33
2022-11-06T00:48:00.178Z,17.73
2022-11-06T00:50:29.539Z,17.20
2022-11-06T00:52:57.986Z,17.27
2022-11-06T00:55:26.069Z,16.47
2022-11-06T00:57:54.164Z,18.03
2022-11-06T01:00:22.549Z,13.60
2022-11-06T01:02:50.714Z,12.80
2022-11-06T01:05:19.026Z,16.70
2022-11-06T01:07:48.441Z,18.57
2022-11-06T01:10:16.441Z,22.93
2022-11-06T01:12:44.416Z,18.00
2022-11-06T01:15:12.754Z,19.50
2022-11-06T01:17:40.735Z,14.00
2022-11-06T01:20:09.938Z,16.83
2022-11-06T01:22:38.044Z,17.27
2022-11-06T01:25:09.322Z,16.67
2022-11-06T01:27:37.535Z,16.40
2022-11-06T01:30:06.668Z,15.47
2022-11-06T01:32:35.767Z,17.30
2022-11-06T01:35:05.094Z,16.50
2022-11-06T01:37:33.093Z,19.73
2022-11-06T01:40:01.364Z,14.83
2022-11-06T01:42:30.758Z,16.83
2022-11-06T01:45:21.121Z,19.30
2022-11-06T01:47:50.038Z,18.23
2022-11-06T01:50:18.862Z,16.63
2022-11-06T01:52:48.749Z,18.13
2022-11-06T01:55:21.125Z,18.37
2022-11-06T01:57:50.677Z,18.93
2022-11-06T02:00:20.989Z,19.53
2022-11-06T02:02:50.314Z,14.17
2022-11-06T02:05:18.741Z,16.43
2022-11-06T02:07:47.596Z,16.23
2022-11-06T02:10:15.802Z,13.33
2022-11-06T02:12:53.102Z,18.13
2022-11-06T02:15:29.285Z,16.10
2022-11-06T02:18:18.239Z,16.87
2022-11-06T02:21:00.247Z,17.73
2022-11-06T02:23:51.896Z,18.27
2022-11-06T02:26:38.764Z,16.70
2022-11-06T02:29:11.238Z,18.40
2022-11-06T02:31:42.441Z,16.27
2022-11-06T02:34:15.450Z,17.00
2022-11-06T02:36:51.787Z,16.03
2022-11-06T02:39:23.529Z,13.90
2022-11-06T02:41:53.738Z,17.90
2022-11-06T02:44:27.444Z,16.07
2022-11-06T02:46:58.427Z,15.80
2022-11-06T02:49:31.366Z,16.93
2022-11-06T02:52:04.959Z,17.43
2022-11-06T02:54:39.029Z,18.13
2022-11-06T02:57:10.830Z,19.10
2022-11-06T02:59:46.539Z,15.97
2022-11-06T03:02:19.503Z,15.77
2022-11-06T03:04:52.612Z,16.90
2022-11-06T03:07:26.614Z,21.17
2022-11-06T03:09:54.685Z,18.97
2022-11-06T03:12:27.124Z,20.37
2022-11-06T03:14:59.530Z,16.57
2022-11-06T03:17:36.196Z,28.43
2022-11-06T03:20:11.650Z,18.33
2022-11-06T03:22:45.478Z,18.50
2022-11-06T03:25:19.826Z,16.50
2022-11-06T03:27:58.065Z,14.67
2022-11-06T03:30:27.653Z,18.80
2022-11-06T03:33:01.686Z,17.40
2022-11-06T03:35:34.181Z,16.30
2022-11-06T03:38:06.498Z,18.10
2022-11-06T03:40:39.258Z,19.47
2022-11-06T03:43:11.568Z,19.40
2022-11-06T03:45:42.329Z,18.90
2022-11-06T03:48:15.162Z,19.37
2022-11-06T03:50:51.518Z,15.40
2022-11-06T03:53:24.986Z,23.40
2022-11-06T03:55:55.920Z,18.90
2022-11-06T03:58:25.743Z,20.27
2022-11-06T04:00:57.690Z,20.87
2022-11-06T04:03:29.280Z,20.33
2022-11-06T04:06:03.486Z,23.83
2022-11-06T04:08:52.077Z,19.90
2022-11-06T04:11:40.843Z,15.77
2022-11-06T04:14:09.442Z,17.60
2022-11-06T04:16:42.786Z,17.60
2022-11-06T04:19:16.543Z,16.77
2022-11-06T04:22:02.283Z,18.60
2022-11-06T04:24:58.061Z,24.43
2022-11-06T04:27:38.307Z,20.03
2022-11-06T04:30:09.517Z,19.27
2022-11-06T04:33:00.254Z,19.67
2022-11-06T04:35:34.709Z,16.13
2022-11-06T04:38:09.519Z,17.20
2022-11-06T04:40:48.216Z,15.97
2022-11-06T04:43:23.899Z,20.90
2022-11-06T04:45:55.283Z,20.13
2022-11-06T04:48:26.409Z,24.60
2022-11-06T04:50:56.594Z,22.53
2022-11-06T04:53:26.314Z,21.83
2022-11-06T04:55:56.668Z,13.17
2022-11-06T04:58:24.629Z,18.00
2022-11-06T05:00:53.129Z,13.87
2022-11-06T05:03:21.185Z,22.00
2022-11-06T05:05:50.583Z,19.13
2022-11-06T05:08:20.979Z,26.13
2022-11-06T05:10:49.619Z,32.00
2022-11-06T05:13:17.591Z,23.50
2022-11-06T05:15:45.666Z,26.80
2022-11-06T05:18:13.886Z,19.40
2022-11-06T05:20:42.090Z,15.80
2022-11-06T05:23:10.472Z,15.03
2022-11-06T05:25:40.228Z,14.43
2022-11-06T05:28:09.268Z,15.50
2022-11-06T05:30:38.265Z,16.43
2022-11-06T05:33:14.922Z,26.93
2022-11-06T05:35:43.014Z,15.70
2022-11-06T05:38:12.773Z,23.80
2022-11-06T05:40:40.953Z,24.43
2022-11-06T05:43:09.035Z,23.97
2022-11-06T05:45:37.080Z,29.27
2022-11-06T05:48:05.481Z,44.80
2022-11-06T05:50:33.434Z,24.63
2022-11-06T05:53:01.687Z,19.00
2022-11-06T05:55:31.130Z,22.70
2022-11-06T05:58:00.222Z,29.13
2022-11-06T06:00:28.203Z,22.10
2022-11-06T06:02:56.361Z,32.90
2022-11-06T06:05:24.417Z,16.83
2022-11-06T06:07:52.497Z,13.87
2022-11-06T06:10:23.874Z,19.70
2022-11-06T06:12:53.266Z,13.03
2022-11-06T06:15:21.228Z,19.53
2022-11-06T06:17:49.193Z,21.47
2022-11-06T06:20:17.365Z,31.43
2022-11-06T06:22:45.289Z,17.87
2022-11-06T06:25:22.355Z,22.20
2022-11-06T06:27:51.589Z,23.00
2022-11-06T06:30:21.772Z,31.00
2022-11-06T06:32:49.981Z,12.90
2022-11-06T06:35:18.857Z,13.17
2022-11-06T06:37:52.586Z,13.47
2022-11-06T06:40:20.952Z,18.53
2022-11-06T06:42:48.918Z,33.47
2022-11-06T06:45:17.406Z,19.67
2022-11-06T06:47:46.742Z,39.80
2022-11-06T06:50:14.853Z,24.90
2022-11-06T06:52:42.878Z,31.43
2022-11-06T06:55:11.180Z,29.67
2022-11-06T06:57:39.224Z,32.93
2022-11-06T07:00:08.699Z,31.37
2022-11-06T07:02:36.768Z,35.77
2022-11-06T07:05:06.694Z,27.13
2022-11-06T07:07:34.619Z,25.23
2022-11-06T07:10:02.610Z,23.10
2022-11-06T07:12:30.597Z,17.87
2022-11-06T07:14:58.691Z,20.37
2022-11-06T07:17:26.782Z,22.10
2022-11-06T07:19:54.896Z,16.70
2022-11-06T07:22:32.350Z,19.37
2022-11-06T07:25:05.319Z,24.03
2022-11-06T07:27:33.533Z,14.73
2022-11-06T07:30:01.850Z,14.80
2022-11-06T07:32:30.205Z,14.23
2022-11-06T07:34:58.294Z,13.67
2022-11-06T07:37:27.933Z,19.00
2022-11-06T07:39:56.166Z,18.20
2022-11-06T07:42:24.154Z,13.40
2022-11-06T07:44:54.446Z,15.87
2022-11-06T07:47:23.258Z,16.20
2022-11-06T07:49:51.459Z,13.90
2022-11-06T07:52:19.530Z,18.37
2022-11-06T07:54:49.289Z,16.27
2022-11-06T07:57:17.375Z,16.83
2022-11-06T07:59:45.574Z,15.03
2022-11-06T08:02:14.336Z,16.03
2022-11-06T08:04:42.506Z,12.60
2022-11-06T08:07:11.098Z,11.90
2022-11-06T08:09:39.561Z,14.47
2022-11-06T08:12:09.321Z,16.20
2022-11-06T08:14:41.314Z,15.83
2022-11-06T08:17:09.933Z,10.03
2022-11-06T08:19:38.055Z,15.77
2022-11-06T08:22:06.145Z,16.10
2022-11-06T08:24:34.904Z,19.43
2022-11-06T08:27:03.329Z,15.27
2022-11-06T08:29:37.014Z,16.97
2022-11-06T08:32:08.061Z,14.30
2022-11-06T08:34:36.705Z,18.60
2022-11-06T08:37:04.688Z,16.03
2022-11-06T08:39:32.850Z,15.43
2022-11-06T08:42:01.856Z,13.37
2022-11-06T08:44:29.849Z,15.97
2022-11-06T08:46:59.222Z,15.60
2022-11-06T08:49:28.835Z,13.80
2022-11-06T08:51:57.366Z,13.50
2022-11-06T08:54:25.309Z,15.20
2022-11-06T08:56:53.275Z,15.57
2022-11-06T08:59:21.567Z,16.23
2022-11-06T09:01:49.632Z,13.83
2022-11-06T09:04:19.293Z,21.10
2022-11-06T09:06:47.222Z,16.70
2022-11-06T09:09:15.191Z,15.50
2022-11-06T09:11:43.248Z,17.37
2022-11-06T09:14:11.315Z,22.87
2022-11-06T09:16:39.368Z,20.77
2022-11-06T09:19:07.463Z,15.63
2022-11-06T09:21:36.781Z,16.83
2022-11-06T09:24:05.242Z,16.50
2022-11-06T09:26:33.272Z,16.53
2022-11-06T09:29:01.341Z,14.53
2022-11-06T09:31:29.344Z,13.97
2022-11-06T09:33:57.336Z,13.90
2022-11-06T09:36:25.541Z,14.00
2022-11-06T09:38:54.871Z,12.00
2022-11-06T09:41:29.353Z,12.90
2022-11-06T09:44:12.580Z,12.30
2022-11-06T09:46:45.322Z,13.43
2022-11-06T09:49:20.564Z,13.10
2022-11-06T09:51:53.496Z,11.60
2022-11-06T09:54:28.547Z,10.83
2022-11-06T09:57:02.293Z,10.63
2022-11-06T09:59:35.822Z,10.70
2022-11-06T10:02:11.217Z,10.10
2022-11-06T10:04:46.869Z,10.23
2022-11-06T10:07:25.425Z,10.43
2022-11-06T10:09:54.993Z,8.67
2022-11-06T10:12:34.336Z,8.67
2022-11-06T10:15:13.487Z,9.53
2022-11-06T10:17:53.905Z,10.20
2022-11-06T10:20:27.668Z,10.00
2022-11-06T10:23:05.572Z,9.83
2022-11-06T10:25:52.830Z,10.07
2022-11-06T10:28:35.157Z,7.27
2022-11-06T10:31:14.496Z,9.53
2022-11-06T10:33:54.119Z,9.03
2022-11-06T10:36:25.882Z,8.93
2022-11-06T10:38:55.721Z,9.47
2022-11-06T10:41:29.860Z,9.50
2022-11-06T10:44:03.506Z,9.00
2022-11-06T10:46:36.236Z,9.90
2022-11-06T10:49:12.012Z,11.13
2022-11-06T10:51:57.182Z,9.30
2022-11-06T10:54:43.730Z,11.10
2022-11-06T10:57:24.371Z,9.80
2022-11-06T10:59:52.726Z,8.00
2022-11-06T11:02:27.365Z,11.60
2022-11-06T11:04:58.034Z,12.60
2022-11-06T11:07:30.297Z,10.20
2022-11-06T11:09:58.262Z,9.57
2022-11-06T11:12:29.530Z,8.07
2022-11-06T11:15:12.938Z,7.47
2022-11-06T11:17:42.464Z,6.33
2022-11-06T11:20:34.250Z,7.10
2022-11-06T11:23:15.620Z,6.00
2022-11-06T11:25:48.807Z,6.27
2022-11-06T11:28:28.683Z,5.13
2022-11-06T11:31:06.777Z,6.13
2022-11-06T11:33:35.440Z,20.50
2022-11-06T11:36:05.518Z,16.27
2022-11-06T11:38:35.925Z,12.00
2022-11-06T11:41:09.336Z,6.00
2022-11-06T11:43:38.813Z,12.90
2022-11-06T11:46:20.683Z,5.30
2022-11-06T11:48:51.322Z,7.27
2022-11-06T11:51:29.623Z,6.00
2022-11-06T11:54:02.210Z,5.60
2022-11-06T11:57:02.268Z,5.27
2022-11-06T11:59:24.386Z,5.17
2022-11-06T12:01:53.838Z,6.40
2022-11-06T12:04:27.452Z,8.47
2022-11-06T12:07:01.525Z,6.20
2022-11-06T12:09:32.655Z,4.03
2022-11-06T12:12:02.274Z,3.63
2022-11-06T12:14:38.899Z,3.33
2022-11-06T12:17:17.604Z,3.97
2022-11-06T12:19:51.344Z,3.27
2022-11-06T12:22:27.855Z,3.77
2022-11-06T12:25:01.016Z,5.37
2022-11-06T12:27:33.931Z,4.77
2022-11-06T12:30:11.118Z,3.93
2022-11-06T12:32:55.086Z,4.00
2022-11-06T12:35:28.697Z,3.50
2022-11-06T12:38:06.963Z,3.53
2022-11-06T12:40:40.156Z,4.53
2022-11-06T12:43:17.223Z,4.23
2022-11-06T12:45:58.309Z,3.53
2022-11-06T12:48:44.856Z,4.37
2022-11-06T12:51:21.209Z,5.50
2022-11-06T12:54:03.487Z,5.67
2022-11-06T12:56:42.360Z,4.60
2022-11-06T12:59:22.633Z,5.47
2022-11-06T13:02:01.376Z,5.67
2022-11-06T13:04:45.766Z,5.57
2022-11-06T13:07:41.433Z,6.77
2022-11-06T13:10:27.476Z,5.90
2022-11-06T13:13:14.987Z,5.70
2022-11-06T13:15:50.711Z,6.30
2022-11-06T13:18:25.777Z,6.30
2022-11-06T13:20:58.245Z,12.17
2022-11-06T13:23:30.068Z,7.30
2022-11-06T13:26:04.326Z,22.30
2022-11-06T13:28:38.783Z,6.27
2022-11-06T13:31:09.243Z,5.17
2022-11-06T13:33:43.868Z,7.50
2022-11-06T13:36:12.618Z,10.23
2022-11-06T13:38:47.201Z,10.10
2022-11-06T13:41:19.783Z,5.50
2022-11-06T13:43:52.045Z,6.53
2022-11-06T13:46:27.854Z,7.53
2022-11-06T13:49:06.527Z,5.20
2022-11-06T13:51:44.841Z,4.00
2022-11-06T13:54:21.002Z,5.63
2022-11-06T13:57:07.508Z,7.80
2022-11-06T13:59:54.749Z,10.00
2022-11-06T14:02:40.839Z,18.00
2022-11-06T14:05:40.717Z,16.40
2022-11-06T14:08:16.440Z,6.43
2022-11-06T14:10:53.744Z,19.47
2022-11-06T14:13:27.531Z,17.07
2022-11-06T14:16:15.758Z,31.70
2022-11-06T14:18:43.954Z,5.40
2022-11-06T14:21:51.576Z,10.47
2022-11-06T14:24:41.070Z,13.93
2022-11-06T14:27:14.758Z,12.30
2022-11-06T14:30:01.760Z,5.80
2022-11-06T14:32:57.268Z,7.40
2022-11-06T14:35:53.065Z,10.37
2022-11-06T14:38:46.413Z,5.70
2022-11-06T14:41:55.555Z,11.83
2022-11-06T14:44:46.297Z,4.47
2022-11-06T14:47:32.573Z,4.80
2022-11-06T14:50:17.627Z,7.53
2022-11-06T14:52:48.814Z,7.83
2022-11-06T14:55:29.661Z,6.13
2022-11-06T14:58:02.552Z,5.27
2022-11-06T15:00:37.700Z,6.40
2022-11-06T15:03:16.808Z,8.57
2022-11-06T15:05:49.615Z,9.27
2022-11-06T15:08:55.593Z,8.37
2022-11-06T15:11:59.858Z,11.83
2022-11-06T15:15:04.820Z,23.07
2022-11-06T15:17:36.704Z,62.03
2022-11-06T15:20:21.990Z,13.50
2022-11-06T15:23:15.152Z,8.80
2022-11-06T15:26:02.131Z,25.80
2022-11-06T15:28:39.215Z,25.27
2022-11-06T15:31:12.528Z,25.40
2022-11-06T15:33:55.722Z,17.33
2022-11-06T15:36:24.923Z,12.30
2022-11-06T15:38:52.953Z,7.97
2022-11-06T15:41:24.161Z,13.53
2022-11-06T15:43:56.201Z,30.57
2022-11-06T15:46:26.278Z,54.80
2022-11-06T15:49:17.195Z,114.43
2022-11-06T15:51:53.604Z,98.90
2022-11-06T15:54:35.925Z,59.63
2022-11-06T15:57:08.790Z,29.23
2022-11-06T15:59:38.088Z,13.83
2022-11-06T16:02:10.961Z,31.40
2022-11-06T16:04:39.245Z,30.00
2022-11-06T16:07:09.211Z,25.40
2022-11-06T16:09:37.838Z,24.63
2022-11-06T16:12:11.488Z,36.43
2022-11-06T16:14:44.994Z,45.07
2022-11-06T16:17:19.432Z,77.03
2022-11-06T16:19:50.084Z,73.17
2022-11-06T16:22:20.910Z,57.23
2022-11-06T16:24:51.724Z,72.40
2022-11-06T16:27:20.666Z,54.07
2022-11-06T16:29:54.850Z,27.87
2022-11-06T16:32:25.960Z,11.33
2022-11-06T16:34:55.249Z,5.97
2022-11-06T16:37:38.276Z,7.67
2022-11-06T16:40:23.253Z,16.97
2022-11-06T16:43:03.583Z,34.17
2022-11-06T16:45:33.060Z,32.60
2022-11-06T16:48:46.887Z,22.30
2022-11-06T16:51:16.867Z,38.77
2022-11-06T16:53:56.910Z,7.93
2022-11-06T16:56:27.970Z,6.27
2022-11-06T16:59:01.653Z,6.23
2022-11-06T17:01:39.339Z,6.30
2022-11-06T17:04:08.014Z,5.80
2022-11-06T17:06:37.949Z,4.07
2022-11-06T17:09:10.190Z,8.93
2022-11-06T17:11:38.685Z,6.10
2022-11-06T17:14:18.690Z,5.80
2022-11-06T17:16:50.626Z,19.90
2022-11-06T17:19:19.585Z,29.20
2022-11-06T17:21:48.494Z,39.87
2022-11-06T17:24:36.586Z,14.60
2022-11-06T17:27:04.738Z,22.77
2022-11-06T17:29:33.873Z,15.77
2022-11-06T17:32:03.537Z,24.33
2022-11-06T17:34:31.468Z,12.13
2022-11-06T17:36:59.636Z,13.13
2022-11-06T17:39:27.750Z,15.80
2022-11-06T17:41:55.799Z,9.70
2022-11-06T17:44:23.842Z,8.97
2022-11-06T17:46:51.849Z,6.50
2022-11-06T17:49:21.301Z,6.97
2022-11-06T17:51:58.294Z,6.90
2022-11-06T17:54:28.426Z,7.10
2022-11-06T17:56:57.344Z,8.90
2022-11-06T17:59:25.985Z,8.80
2022-11-06T18:01:55.430Z,13.20
2022-11-06T18:04:26.883Z,12.33
2022-11-06T18:06:55.803Z,9.67
2022-11-06T18:09:24.931Z,13.10
2022-11-06T18:11:54.732Z,12.20
2022-11-06T18:14:24.258Z,16.80
2022-11-06T18:16:53.156Z,14.80
2022-11-06T18:19:25.144Z,13.67
2022-11-06T18:21:55.552Z,8.93
2022-11-06T18:24:23.801Z,8.10
2022-11-06T18:26:52.071Z,9.57
2022-11-06T18:29:20.801Z,9.50
2022-11-06T18:31:49.023Z,9.07
2022-11-06T18:34:21.100Z,13.87
2022-11-06T18:36:51.749Z,12.00
2022-11-06T18:39:21.263Z,13.20
2022-11-06T18:41:49.475Z,12.13
2022-11-06T18:44:18.459Z,10.93
2022-11-06T18:46:46.778Z,11.73
2022-11-06T18:49:15.255Z,12.40
2022-11-06T18:51:43.439Z,20.70
2022-11-06T18:54:13.774Z,52.53
2022-11-06T18:56:42.324Z,24.10
2022-11-06T18:59:15.139Z,20.77
2022-11-06T19:01:43.280Z,18.00
2022-11-06T19:04:11.624Z,16.57
2022-11-06T19:06:40.351Z,14.63
2022-11-06T19:09:09.043Z,16.90
2022-11-06T19:11:38.476Z,15.83
2022-11-06T19:14:06.910Z,12.20
2022-11-06T19:16:35.190Z,14.13
2022-11-06T19:19:05.506Z,12.60
2022-11-06T19:21:34.558Z,15.23
2022-11-06T19:24:05.954Z,14.03
2022-11-06T19:26:35.351Z,66.73
2022-11-06T19:29:05.889Z,19.23
2022-11-06T19:31:35.099Z,13.07
2022-11-06T19:34:04.525Z,12.00
2022-11-06T19:36:33.512Z,14.47
2022-11-06T19:39:01.569Z,19.70
2022-11-06T19:41:30.288Z,19.80
2022-11-06T19:43:58.530Z,15.70
2022-11-06T19:46:33.994Z,15.47
2022-11-06T19:49:03.942Z,17.90
2022-11-06T19:51:33.155Z,16.50
2022-11-06T19:54:01.950Z,18.40
2022-11-06T19:56:30.053Z,20.30
2022-11-06T19:58:58.136Z,15.67
2022-11-06T20:01:27.691Z,37.10
2022-11-06T20:03:55.792Z,20.77
2022-11-06T20:06:23.984Z,20.77
2022-11-06T20:08:51.988Z,23.70
2022-11-06T20:11:20.045Z,20.40
2022-11-06T20:13:49.306Z,15.90
2022-11-06T20:16:19.810Z,15.23
2022-11-06T20:18:53.614Z,16.63
2022-11-06T20:21:22.067Z,19.83
2022-11-06T20:23:50.592Z,20.27
2022-11-06T20:26:18.915Z,18.30
2022-11-06T20:28:48.458Z,16.77
2022-11-06T20:31:19.561Z,17.63
2022-11-06T20:33:48.568Z,17.40
2022-11-06T20:36:22.930Z,15.20
2022-11-06T20:38:51.593Z,14.83
2022-11-06T20:41:19.894Z,15.73
2022-11-06T20:43:49.888Z,14.90
2022-11-06T20:46:19.791Z,13.03
2022-11-06T20:48:48.523Z,11.90
2022-11-06T20:51:20.160Z,17.07
2022-11-06T20:53:48.509Z,15.63
2022-11-06T20:56:18.530Z,13.90
2022-11-06T20:58:46.684Z,10.63
2022-11-06T21:01:18.202Z,12.77
2022-11-06T21:03:47.763Z,13.53
2022-11-06T21:06:17.333Z,17.23
2022-11-06T21:08:45.669Z,14.60
2022-11-06T21:11:16.683Z,12.73
2022-11-06T21:13:46.607Z,12.97
2022-11-06T21:16:16.990Z,9.60
2022-11-06T21:18:45.583Z,9.43
2022-11-06T21:21:16.072Z,9.30
2022-11-06T21:23:45.602Z,11.53
2022-11-06T21:26:14.979Z,8.43
2022-11-06T21:28:44.234Z,8.90
2022-11-06T21:31:13.692Z,8.00
2022-11-06T21:33:42.364Z,10.90
2022-11-06T21:36:12.253Z,8.90
2022-11-06T21:38:40.963Z,10.27
2022-11-06T21:41:13.845Z,10.07
2022-11-06T21:43:42.281Z,10.50
2022-11-06T21:46:13.471Z,12.60
2022-11-06T21:48:47.448Z,9.60
2022-11-06T21:51:19.200Z,11.13
2022-11-06T21:54:05.677Z,10.73
2022-11-06T21:56:35.827Z,9.70
2022-11-06T21:59:05.459Z,17.50
2022-11-06T22:01:33.828Z,14.40
2022-11-06T22:04:03.216Z,11.27
2022-11-06T22:06:32.298Z,10.07
2022-11-06T22:09:02.766Z,11.13
2022-11-06T22:11:33.553Z,10.10
2022-11-06T22:14:04.799Z,9.47
2022-11-06T22:16:34.838Z,8.83
2022-11-06T22:19:03.876Z,9.40
2022-11-06T22:21:32.204Z,9.07
2022-11-06T22:24:00.175Z,8.97
2022-11-06T22:26:30.191Z,8.50
2022-11-06T22:29:00.068Z,9.07
2022-11-06T22:31:30.031Z,9.90
2022-11-06T22:33:58.757Z,11.67
2022-11-06T22:36:27.891Z,9.33
2022-11-06T22:38:56.663Z,10.20
2022-11-06T22:41:25.904Z,7.40
2022-11-06T22:43:57.909Z,9.03
2022-11-06T22:46:27.512Z,9.23
2022-11-06T22:48:57.114Z,9.23
2022-11-06T22:51:26.994Z,8.10
2022-11-06T22:53:55.429Z,11.20
2022-11-06T22:56:24.991Z,10.57
2022-11-06T22:58:55.319Z,10.67
2022-11-06T23:01:25.667Z,11.57
2022-11-06T23:03:56.581Z,10.77
2022-11-06T23:06:27.009Z,10.30
2022-11-06T23:08:55.234Z,9.97
2022-11-06T23:11:25.968Z,10.47
2022-11-06T23:13:55.173Z,10.70
2022-11-06T23:16:39.217Z,10.53
2022-11-06T23:19:07.285Z,10.20
2022-11-06T23:21:37.035Z,10.60
2022-11-06T23:24:06.210Z,11.70
2022-11-06T23:26:34.739Z,10.63
2022-11-06T23:29:03.480Z,10.60
2022-11-06T23:31:31.765Z,10.90
2022-11-06T23:33:59.806Z,11.70
2022-11-06T23:36:27.860Z,12.70
2022-11-06T23:38:57.307Z,12.77
2022-11-06T23:41:43.032Z,11.70
2022-11-06T23:44:31.056Z,12.57
2022-11-06T23:46:58.698Z,11.63
2022-11-06T23:49:26.957Z,12.10
2022-11-06T23:51:55.785Z,13.30
2022-11-06T23:54:25.961Z,10.03
2022-11-06T23:56:54.008Z,12.27
2022-11-06T23:59:22.374Z,13.20
